sensor_id;sensor_type;location;lat;lon;timestamp;P1;durP1;ratioP1;P2;durP2;ratioP2
24216;SDS011;12356;49.386;8.688;2023-07-29T00:01:24;3.70;;;1.40;;
24216;SDS011;12356;49.386;8.688;2023-07-29T00:03:55;1.73;;;1.20;;
24216;SDS011;12356;49.386;8.688;2023-07-29T00:06:26;3.60;;;1.20;;
24216;SDS011;12356;49.386;8.688;2023-07-29T00:08:57;1.88;;;1.25;;
24216;SDS011;12356;49.386;8.688;2023-07-29T00:11:27;1.65;;;1.10;;
24216;SDS011;12356;49.386;8.688;2023-07-29T00:13:58;1.85;;;0.98;;
24216;SDS011;12356;49.386;8.688;2023-07-29T00:16:28;4.25;;;1.27;;
24216;SDS011;12356;49.386;8.688;2023-07-29T00:18:59;3.95;;;1.40;;
24216;SDS011;12356;49.386;8.688;2023-07-29T00:21:29;1.20;;;1.10;;
24216;SDS011;12356;49.386;8.688;2023-07-29T00:24:00;1.48;;;1.38;;
24216;SDS011;12356;49.386;8.688;2023-07-29T00:26:31;1.55;;;1.30;;
24216;SDS011;12356;49.386;8.688;2023-07-29T00:29:02;3.70;;;1.30;;
24216;SDS011;12356;49.386;8.688;2023-07-29T00:31:33;2.97;;;1.20;;
24216;SDS011;12356;49.386;8.688;2023-07-29T00:34:04;3.47;;;1.30;;
24216;SDS011;12356;49.386;8.688;2023-07-29T00:36:34;2.60;;;1.30;;
24216;SDS011;12356;49.386;8.688;2023-07-29T00:39:05;1.23;;;1.08;;
24216;SDS011;12356;49.386;8.688;2023-07-29T00:41:35;4.55;;;1.13;;
24216;SDS011;12356;49.386;8.688;2023-07-29T00:44:06;1.90;;;1.40;;
24216;SDS011;12356;49.386;8.688;2023-07-29T00:46:36;2.33;;;1.05;;
24216;SDS011;12356;49.386;8.688;2023-07-29T00:49:10;1.63;;;1.10;;
24216;SDS011;12356;49.386;8.688;2023-07-29T00:51:40;1.80;;;1.20;;
24216;SDS011;12356;49.386;8.688;2023-07-29T00:54:11;1.48;;;1.10;;
24216;SDS011;12356;49.386;8.688;2023-07-29T00:56:41;2.13;;;1.00;;
24216;SDS011;12356;49.386;8.688;2023-07-29T00:59:12;1.17;;;1.08;;
24216;SDS011;12356;49.386;8.688;2023-07-29T01:01:43;3.08;;;1.25;;
24216;SDS011;12356;49.386;8.688;2023-07-29T01:04:14;3.50;;;1.30;;
24216;SDS011;12356;49.386;8.688;2023-07-29T01:06:53;3.70;;;1.30;;
24216;SDS011;12356;49.386;8.688;2023-07-29T01:09:37;2.08;;;1.30;;
24216;SDS011;12356;49.386;8.688;2023-07-29T01:12:24;2.17;;;1.10;;
24216;SDS011;12356;49.386;8.688;2023-07-29T01:17:48;4.97;;;1.42;;
24216;SDS011;12356;49.386;8.688;2023-07-29T01:20:40;2.63;;;1.20;;
24216;SDS011;12356;49.386;8.688;2023-07-29T01:23:14;1.27;;;1.02;;
24216;SDS011;12356;49.386;8.688;2023-07-29T01:25:46;4.35;;;1.30;;
24216;SDS011;12356;49.386;8.688;2023-07-29T01:28:16;3.00;;;1.27;;
24216;SDS011;12356;49.386;8.688;2023-07-29T01:30:48;2.38;;;1.20;;
24216;SDS011;12356;49.386;8.688;2023-07-29T01:33:23;4.50;;;1.10;;
24216;SDS011;12356;49.386;8.688;2023-07-29T01:36:03;3.00;;;1.38;;
24216;SDS011;12356;49.386;8.688;2023-07-29T01:38:38;1.20;;;1.10;;
24216;SDS011;12356;49.386;8.688;2023-07-29T01:41:11;2.88;;;1.20;;
24216;SDS011;12356;49.386;8.688;2023-07-29T01:43:43;2.42;;;1.30;;
24216;SDS011;12356;49.386;8.688;2023-07-29T01:46:15;1.80;;;1.10;;
24216;SDS011;12356;49.386;8.688;2023-07-29T01:48:45;3.30;;;1.25;;
24216;SDS011;12356;49.386;8.688;2023-07-29T01:51:16;1.70;;;1.10;;
24216;SDS011;12356;49.386;8.688;2023-07-29T01:53:46;2.95;;;1.20;;
24216;SDS011;12356;49.386;8.688;2023-07-29T01:56:17;1.20;;;1.10;;
24216;SDS011;12356;49.386;8.688;2023-07-29T01:58:47;3.20;;;1.30;;
24216;SDS011;12356;49.386;8.688;2023-07-29T02:01:18;2.75;;;1.27;;
24216;SDS011;12356;49.386;8.688;2023-07-29T02:03:48;1.83;;;1.35;;
24216;SDS011;12356;49.386;8.688;2023-07-29T02:06:24;3.53;;;1.20;;
24216;SDS011;12356;49.386;8.688;2023-07-29T02:08:56;2.60;;;1.10;;
24216;SDS011;12356;49.386;8.688;2023-07-29T02:11:27;2.55;;;1.20;;
24216;SDS011;12356;49.386;8.688;2023-07-29T02:13:57;1.50;;;1.13;;
24216;SDS011;12356;49.386;8.688;2023-07-29T02:16:28;2.90;;;1.40;;
24216;SDS011;12356;49.386;8.688;2023-07-29T02:18:59;2.45;;;1.17;;
24216;SDS011;12356;49.386;8.688;2023-07-29T02:21:29;3.58;;;1.38;;
24216;SDS011;12356;49.386;8.688;2023-07-29T02:24:00;3.42;;;1.13;;
24216;SDS011;12356;49.386;8.688;2023-07-29T02:26:30;2.75;;;1.30;;
24216;SDS011;12356;49.386;8.688;2023-07-29T02:29:01;1.98;;;1.20;;
24216;SDS011;12356;49.386;8.688;2023-07-29T02:31:31;2.78;;;1.23;;
24216;SDS011;12356;49.386;8.688;2023-07-29T02:34:02;2.92;;;1.40;;
24216;SDS011;12356;49.386;8.688;2023-07-29T02:36:32;2.45;;;1.30;;
24216;SDS011;12356;49.386;8.688;2023-07-29T02:39:03;1.55;;;1.23;;
24216;SDS011;12356;49.386;8.688;2023-07-29T02:41:33;3.72;;;1.30;;
24216;SDS011;12356;49.386;8.688;2023-07-29T02:44:04;3.17;;;1.20;;
24216;SDS011;12356;49.386;8.688;2023-07-29T02:46:35;1.75;;;1.30;;
24216;SDS011;12356;49.386;8.688;2023-07-29T02:49:05;4.60;;;1.52;;
24216;SDS011;12356;49.386;8.688;2023-07-29T02:51:36;2.13;;;1.30;;
24216;SDS011;12356;49.386;8.688;2023-07-29T02:54:07;1.27;;;1.17;;
24216;SDS011;12356;49.386;8.688;2023-07-29T02:56:37;6.63;;;1.30;;
24216;SDS011;12356;49.386;8.688;2023-07-29T02:59:08;1.75;;;1.20;;
24216;SDS011;12356;49.386;8.688;2023-07-29T03:01:39;2.63;;;1.30;;
24216;SDS011;12356;49.386;8.688;2023-07-29T03:04:09;4.38;;;1.48;;
24216;SDS011;12356;49.386;8.688;2023-07-29T03:06:42;1.30;;;1.10;;
24216;SDS011;12356;49.386;8.688;2023-07-29T03:09:13;5.35;;;1.17;;
24216;SDS011;12356;49.386;8.688;2023-07-29T03:11:44;1.88;;;1.33;;
24216;SDS011;12356;49.386;8.688;2023-07-29T03:14:14;3.10;;;1.48;;
24216;SDS011;12356;49.386;8.688;2023-07-29T03:16:45;4.32;;;1.30;;
24216;SDS011;12356;49.386;8.688;2023-07-29T03:19:15;2.25;;;1.30;;
24216;SDS011;12356;49.386;8.688;2023-07-29T03:21:46;2.65;;;1.27;;
24216;SDS011;12356;49.386;8.688;2023-07-29T03:24:17;1.73;;;1.25;;
24216;SDS011;12356;49.386;8.688;2023-07-29T03:26:47;2.17;;;1.30;;
24216;SDS011;12356;49.386;8.688;2023-07-29T03:29:18;1.58;;;1.27;;
24216;SDS011;12356;49.386;8.688;2023-07-29T03:31:48;2.10;;;1.50;;
24216;SDS011;12356;49.386;8.688;2023-07-29T03:34:19;2.85;;;1.25;;
24216;SDS011;12356;49.386;8.688;2023-07-29T03:36:49;2.75;;;1.20;;
24216;SDS011;12356;49.386;8.688;2023-07-29T03:39:21;2.53;;;1.25;;
24216;SDS011;12356;49.386;8.688;2023-07-29T03:41:52;2.78;;;1.45;;
24216;SDS011;12356;49.386;8.688;2023-07-29T03:44:22;1.30;;;1.20;;
24216;SDS011;12356;49.386;8.688;2023-07-29T03:46:53;2.95;;;1.45;;
24216;SDS011;12356;49.386;8.688;2023-07-29T03:49:23;4.35;;;1.40;;
24216;SDS011;12356;49.386;8.688;2023-07-29T03:51:54;2.45;;;1.63;;
24216;SDS011;12356;49.386;8.688;2023-07-29T03:54:24;1.98;;;1.35;;
24216;SDS011;12356;49.386;8.688;2023-07-29T03:56:55;2.78;;;1.73;;
24216;SDS011;12356;49.386;8.688;2023-07-29T03:59:26;2.63;;;1.35;;
24216;SDS011;12356;49.386;8.688;2023-07-29T04:01:56;3.92;;;1.50;;
24216;SDS011;12356;49.386;8.688;2023-07-29T04:04:27;3.60;;;1.55;;
24216;SDS011;12356;49.386;8.688;2023-07-29T04:06:57;4.90;;;1.48;;
24216;SDS011;12356;49.386;8.688;2023-07-29T04:09:28;2.67;;;1.50;;
24216;SDS011;12356;49.386;8.688;2023-07-29T04:11:58;1.65;;;1.52;;
24216;SDS011;12356;49.386;8.688;2023-07-29T04:14:29;2.25;;;1.48;;
24216;SDS011;12356;49.386;8.688;2023-07-29T04:16:59;2.88;;;1.77;;
24216;SDS011;12356;49.386;8.688;2023-07-29T04:19:30;3.05;;;1.48;;
24216;SDS011;12356;49.386;8.688;2023-07-29T04:22:00;2.75;;;1.50;;
24216;SDS011;12356;49.386;8.688;2023-07-29T04:24:31;3.67;;;1.50;;
24216;SDS011;12356;49.386;8.688;2023-07-29T04:27:01;6.28;;;1.67;;
24216;SDS011;12356;49.386;8.688;2023-07-29T04:29:32;2.78;;;1.50;;
24216;SDS011;12356;49.386;8.688;2023-07-29T04:32:03;1.90;;;1.30;;
24216;SDS011;12356;49.386;8.688;2023-07-29T04:34:34;2.85;;;1.65;;
24216;SDS011;12356;49.386;8.688;2023-07-29T04:37:04;1.67;;;1.40;;
24216;SDS011;12356;49.386;8.688;2023-07-29T04:39:35;2.53;;;1.50;;
24216;SDS011;12356;49.386;8.688;2023-07-29T04:42:06;2.40;;;1.60;;
24216;SDS011;12356;49.386;8.688;2023-07-29T04:44:36;2.55;;;1.70;;
24216;SDS011;12356;49.386;8.688;2023-07-29T04:47:07;4.13;;;1.58;;
24216;SDS011;12356;49.386;8.688;2023-07-29T04:49:37;4.25;;;1.90;;
24216;SDS011;12356;49.386;8.688;2023-07-29T04:52:08;4.55;;;2.00;;
24216;SDS011;12356;49.386;8.688;2023-07-29T04:54:38;7.07;;;2.20;;
24216;SDS011;12356;49.386;8.688;2023-07-29T04:57:09;5.70;;;1.95;;
24216;SDS011;12356;49.386;8.688;2023-07-29T04:59:39;5.47;;;1.83;;
24216;SDS011;12356;49.386;8.688;2023-07-29T05:02:10;2.92;;;1.83;;
24216;SDS011;12356;49.386;8.688;2023-07-29T05:04:41;3.72;;;1.73;;
24216;SDS011;12356;49.386;8.688;2023-07-29T05:07:11;4.00;;;1.90;;
24216;SDS011;12356;49.386;8.688;2023-07-29T05:09:42;8.70;;;2.08;;
24216;SDS011;12356;49.386;8.688;2023-07-29T05:12:13;5.03;;;2.35;;
24216;SDS011;12356;49.386;8.688;2023-07-29T05:14:43;7.90;;;1.88;;
24216;SDS011;12356;49.386;8.688;2023-07-29T05:17:14;5.85;;;2.28;;
24216;SDS011;12356;49.386;8.688;2023-07-29T05:19:44;6.68;;;2.10;;
24216;SDS011;12356;49.386;8.688;2023-07-29T05:22:15;5.68;;;2.00;;
24216;SDS011;12356;49.386;8.688;2023-07-29T05:24:45;8.10;;;2.15;;
24216;SDS011;12356;49.386;8.688;2023-07-29T05:27:16;6.10;;;2.20;;
24216;SDS011;12356;49.386;8.688;2023-07-29T05:29:46;6.38;;;2.17;;
24216;SDS011;12356;49.386;8.688;2023-07-29T05:32:17;3.50;;;1.98;;
24216;SDS011;12356;49.386;8.688;2023-07-29T05:34:47;5.63;;;1.90;;
24216;SDS011;12356;49.386;8.688;2023-07-29T05:37:18;4.60;;;1.90;;
24216;SDS011;12356;49.386;8.688;2023-07-29T05:39:48;4.85;;;1.70;;
24216;SDS011;12356;49.386;8.688;2023-07-29T05:42:19;3.25;;;1.38;;
24216;SDS011;12356;49.386;8.688;2023-07-29T05:44:49;5.10;;;2.03;;
24216;SDS011;12356;49.386;8.688;2023-07-29T05:47:20;5.82;;;1.77;;
24216;SDS011;12356;49.386;8.688;2023-07-29T05:49:50;5.43;;;1.80;;
24216;SDS011;12356;49.386;8.688;2023-07-29T05:52:21;2.78;;;1.48;;
24216;SDS011;12356;49.386;8.688;2023-07-29T05:54:52;5.10;;;1.70;;
24216;SDS011;12356;49.386;8.688;2023-07-29T05:57:23;1.70;;;1.33;;
24216;SDS011;12356;49.386;8.688;2023-07-29T05:59:53;2.25;;;1.40;;
24216;SDS011;12356;49.386;8.688;2023-07-29T06:02:24;3.38;;;1.65;;
24216;SDS011;12356;49.386;8.688;2023-07-29T06:04:54;3.08;;;1.73;;
24216;SDS011;12356;49.386;8.688;2023-07-29T06:07:25;2.50;;;1.40;;
24216;SDS011;12356;49.386;8.688;2023-07-29T06:09:59;1.55;;;1.23;;
24216;SDS011;12356;49.386;8.688;2023-07-29T06:12:30;2.25;;;1.33;;
24216;SDS011;12356;49.386;8.688;2023-07-29T06:15:01;5.68;;;1.50;;
24216;SDS011;12356;49.386;8.688;2023-07-29T06:17:31;2.35;;;1.50;;
24216;SDS011;12356;49.386;8.688;2023-07-29T06:20:02;3.63;;;1.70;;
24216;SDS011;12356;49.386;8.688;2023-07-29T06:22:33;5.65;;;1.67;;
24216;SDS011;12356;49.386;8.688;2023-07-29T06:25:03;6.05;;;2.10;;
24216;SDS011;12356;49.386;8.688;2023-07-29T06:27:34;5.50;;;2.00;;
24216;SDS011;12356;49.386;8.688;2023-07-29T06:30:05;4.80;;;2.38;;
24216;SDS011;12356;49.386;8.688;2023-07-29T06:32:36;4.75;;;2.45;;
24216;SDS011;12356;49.386;8.688;2023-07-29T06:35:06;4.05;;;2.50;;
24216;SDS011;12356;49.386;8.688;2023-07-29T06:37:37;5.03;;;2.60;;
24216;SDS011;12356;49.386;8.688;2023-07-29T06:40:08;3.00;;;2.50;;
24216;SDS011;12356;49.386;8.688;2023-07-29T06:42:38;2.67;;;2.47;;
24216;SDS011;12356;49.386;8.688;2023-07-29T06:45:09;3.50;;;2.55;;
24216;SDS011;12356;49.386;8.688;2023-07-29T06:47:40;2.95;;;2.63;;
24216;SDS011;12356;49.386;8.688;2023-07-29T06:50:10;3.30;;;2.40;;
24216;SDS011;12356;49.386;8.688;2023-07-29T06:52:41;3.25;;;2.63;;
24216;SDS011;12356;49.386;8.688;2023-07-29T06:55:11;2.92;;;2.40;;
24216;SDS011;12356;49.386;8.688;2023-07-29T06:57:42;3.47;;;2.55;;
24216;SDS011;12356;49.386;8.688;2023-07-29T07:00:13;3.40;;;2.55;;
24216;SDS011;12356;49.386;8.688;2023-07-29T07:02:43;4.30;;;2.53;;
24216;SDS011;12356;49.386;8.688;2023-07-29T07:05:14;3.90;;;2.90;;
24216;SDS011;12356;49.386;8.688;2023-07-29T07:07:45;5.28;;;2.70;;
24216;SDS011;12356;49.386;8.688;2023-07-29T07:10:15;6.82;;;3.08;;
24216;SDS011;12356;49.386;8.688;2023-07-29T07:12:46;4.20;;;2.60;;
24216;SDS011;12356;49.386;8.688;2023-07-29T07:15:17;4.75;;;2.80;;
24216;SDS011;12356;49.386;8.688;2023-07-29T07:17:47;4.40;;;2.75;;
24216;SDS011;12356;49.386;8.688;2023-07-29T07:20:18;5.07;;;2.97;;
24216;SDS011;12356;49.386;8.688;2023-07-29T07:22:48;5.20;;;3.10;;
24216;SDS011;12356;49.386;8.688;2023-07-29T07:25:19;4.18;;;2.80;;
24216;SDS011;12356;49.386;8.688;2023-07-29T07:27:50;5.88;;;3.45;;
24216;SDS011;12356;49.386;8.688;2023-07-29T07:30:20;4.55;;;3.20;;
24216;SDS011;12356;49.386;8.688;2023-07-29T07:32:51;5.93;;;3.40;;
24216;SDS011;12356;49.386;8.688;2023-07-29T07:35:21;7.75;;;3.33;;
24216;SDS011;12356;49.386;8.688;2023-07-29T07:37:52;3.72;;;3.15;;
24216;SDS011;12356;49.386;8.688;2023-07-29T07:40:22;6.32;;;3.33;;
24216;SDS011;12356;49.386;8.688;2023-07-29T07:42:53;6.53;;;3.17;;
24216;SDS011;12356;49.386;8.688;2023-07-29T07:45:23;9.65;;;3.42;;
24216;SDS011;12356;49.386;8.688;2023-07-29T07:47:54;4.53;;;2.85;;
24216;SDS011;12356;49.386;8.688;2023-07-29T07:50:29;6.40;;;3.22;;
24216;SDS011;12356;49.386;8.688;2023-07-29T07:53:00;8.13;;;3.58;;
24216;SDS011;12356;49.386;8.688;2023-07-29T07:55:31;6.75;;;3.08;;
24216;SDS011;12356;49.386;8.688;2023-07-29T07:58:01;5.78;;;3.03;;
24216;SDS011;12356;49.386;8.688;2023-07-29T08:00:32;4.15;;;2.88;;
24216;SDS011;12356;49.386;8.688;2023-07-29T08:03:02;6.28;;;3.22;;
24216;SDS011;12356;49.386;8.688;2023-07-29T08:05:33;6.78;;;3.10;;
24216;SDS011;12356;49.386;8.688;2023-07-29T08:08:04;6.22;;;3.13;;
24216;SDS011;12356;49.386;8.688;2023-07-29T08:10:34;3.50;;;2.78;;
24216;SDS011;12356;49.386;8.688;2023-07-29T08:13:05;3.33;;;2.92;;
24216;SDS011;12356;49.386;8.688;2023-07-29T08:15:36;3.70;;;2.92;;
24216;SDS011;12356;49.386;8.688;2023-07-29T08:18:06;6.88;;;3.08;;
24216;SDS011;12356;49.386;8.688;2023-07-29T08:20:37;7.50;;;3.10;;
24216;SDS011;12356;49.386;8.688;2023-07-29T08:23:08;4.93;;;3.42;;
24216;SDS011;12356;49.386;8.688;2023-07-29T08:25:38;4.72;;;3.20;;
24216;SDS011;12356;49.386;8.688;2023-07-29T08:28:09;4.55;;;3.28;;
24216;SDS011;12356;49.386;8.688;2023-07-29T08:30:41;5.32;;;3.38;;
24216;SDS011;12356;49.386;8.688;2023-07-29T08:33:11;3.75;;;3.00;;
24216;SDS011;12356;49.386;8.688;2023-07-29T08:35:42;4.07;;;2.78;;
24216;SDS011;12356;49.386;8.688;2023-07-29T08:38:12;4.22;;;3.00;;
24216;SDS011;12356;49.386;8.688;2023-07-29T08:40:54;4.30;;;3.03;;
24216;SDS011;12356;49.386;8.688;2023-07-29T08:43:50;4.35;;;2.50;;
24216;SDS011;12356;49.386;8.688;2023-07-29T08:46:26;4.88;;;2.80;;
24216;SDS011;12356;49.386;8.688;2023-07-29T08:48:58;5.20;;;2.85;;
24216;SDS011;12356;49.386;8.688;2023-07-29T08:51:29;5.80;;;2.95;;
24216;SDS011;12356;49.386;8.688;2023-07-29T08:54:02;2.65;;;2.40;;
24216;SDS011;12356;49.386;8.688;2023-07-29T08:56:33;5.43;;;2.83;;
24216;SDS011;12356;49.386;8.688;2023-07-29T08:59:04;3.00;;;2.70;;
24216;SDS011;12356;49.386;8.688;2023-07-29T09:01:35;4.68;;;2.78;;
24216;SDS011;12356;49.386;8.688;2023-07-29T09:04:07;4.30;;;2.67;;
24216;SDS011;12356;49.386;8.688;2023-07-29T09:06:37;3.40;;;2.53;;
24216;SDS011;12356;49.386;8.688;2023-07-29T09:09:09;4.80;;;2.85;;
24216;SDS011;12356;49.386;8.688;2023-07-29T09:11:40;4.60;;;2.80;;
24216;SDS011;12356;49.386;8.688;2023-07-29T09:14:11;2.67;;;2.42;;
24216;SDS011;12356;49.386;8.688;2023-07-29T09:16:43;4.00;;;2.63;;
24216;SDS011;12356;49.386;8.688;2023-07-29T09:19:14;3.33;;;3.00;;
24216;SDS011;12356;49.386;8.688;2023-07-29T09:21:45;2.88;;;2.50;;
24216;SDS011;12356;49.386;8.688;2023-07-29T09:24:16;3.97;;;2.80;;
24216;SDS011;12356;49.386;8.688;2023-07-29T09:26:49;4.87;;;3.00;;
24216;SDS011;12356;49.386;8.688;2023-07-29T09:29:21;3.30;;;3.00;;
24216;SDS011;12356;49.386;8.688;2023-07-29T09:31:53;3.78;;;2.83;;
24216;SDS011;12356;49.386;8.688;2023-07-29T09:34:25;3.47;;;2.72;;
24216;SDS011;12356;49.386;8.688;2023-07-29T09:36:57;3.03;;;2.72;;
24216;SDS011;12356;49.386;8.688;2023-07-29T09:39:28;3.17;;;2.80;;
24216;SDS011;12356;49.386;8.688;2023-07-29T09:41:59;3.42;;;2.85;;
24216;SDS011;12356;49.386;8.688;2023-07-29T09:44:32;4.53;;;3.08;;
24216;SDS011;12356;49.386;8.688;2023-07-29T09:47:06;3.70;;;3.20;;
24216;SDS011;12356;49.386;8.688;2023-07-29T09:49:37;3.72;;;2.63;;
24216;SDS011;12356;49.386;8.688;2023-07-29T09:52:08;3.33;;;2.60;;
24216;SDS011;12356;49.386;8.688;2023-07-29T09:54:39;3.20;;;2.65;;
24216;SDS011;12356;49.386;8.688;2023-07-29T09:57:12;3.53;;;2.72;;
24216;SDS011;12356;49.386;8.688;2023-07-29T09:59:56;2.88;;;2.35;;
24216;SDS011;12356;49.386;8.688;2023-07-29T10:02:27;4.47;;;2.90;;
24216;SDS011;12356;49.386;8.688;2023-07-29T10:04:59;3.95;;;2.80;;
24216;SDS011;12356;49.386;8.688;2023-07-29T10:07:37;4.07;;;2.55;;
24216;SDS011;12356;49.386;8.688;2023-07-29T10:10:09;3.38;;;2.45;;
24216;SDS011;12356;49.386;8.688;2023-07-29T10:12:40;3.78;;;2.63;;
24216;SDS011;12356;49.386;8.688;2023-07-29T10:15:12;2.60;;;2.40;;
24216;SDS011;12356;49.386;8.688;2023-07-29T10:17:44;2.67;;;2.47;;
24216;SDS011;12356;49.386;8.688;2023-07-29T10:20:16;4.32;;;2.53;;
24216;SDS011;12356;49.386;8.688;2023-07-29T10:22:47;2.60;;;2.40;;
24216;SDS011;12356;49.386;8.688;2023-07-29T10:25:24;3.55;;;2.42;;
24216;SDS011;12356;49.386;8.688;2023-07-29T10:27:56;2.50;;;2.30;;
24216;SDS011;12356;49.386;8.688;2023-07-29T10:30:37;2.97;;;2.38;;
24216;SDS011;12356;49.386;8.688;2023-07-29T10:33:08;3.70;;;2.38;;
24216;SDS011;12356;49.386;8.688;2023-07-29T10:35:40;2.40;;;2.20;;
24216;SDS011;12356;49.386;8.688;2023-07-29T10:38:12;2.60;;;2.40;;
24216;SDS011;12356;49.386;8.688;2023-07-29T10:40:43;3.28;;;2.10;;
24216;SDS011;12356;49.386;8.688;2023-07-29T10:43:24;2.92;;;2.30;;
24216;SDS011;12356;49.386;8.688;2023-07-29T10:45:55;2.30;;;2.10;;
24216;SDS011;12356;49.386;8.688;2023-07-29T10:53:53;2.58;;;2.38;;
24216;SDS011;12356;49.386;8.688;2023-07-29T10:56:34;2.55;;;2.35;;
24216;SDS011;12356;49.386;8.688;2023-07-29T11:01:43;2.50;;;2.30;;
24216;SDS011;12356;49.386;8.688;2023-07-29T11:09:51;3.50;;;2.20;;
24216;SDS011;12356;49.386;8.688;2023-07-29T11:17:58;3.50;;;2.10;;
24216;SDS011;12356;49.386;8.688;2023-07-29T11:20:30;4.68;;;2.20;;
24216;SDS011;12356;49.386;8.688;2023-07-29T11:23:03;2.60;;;2.00;;
24216;SDS011;12356;49.386;8.688;2023-07-29T11:25:34;2.28;;;1.90;;
24216;SDS011;12356;49.386;8.688;2023-07-29T11:28:05;3.50;;;2.03;;
24216;SDS011;12356;49.386;8.688;2023-07-29T11:30:38;4.20;;;2.10;;
24216;SDS011;12356;49.386;8.688;2023-07-29T11:33:09;3.28;;;2.20;;
24216;SDS011;12356;49.386;8.688;2023-07-29T11:35:41;4.07;;;2.20;;
24216;SDS011;12356;49.386;8.688;2023-07-29T11:38:15;2.25;;;2.05;;
24216;SDS011;12356;49.386;8.688;2023-07-29T11:40:56;3.67;;;2.20;;
24216;SDS011;12356;49.386;8.688;2023-07-29T11:43:34;2.00;;;1.80;;
24216;SDS011;12356;49.386;8.688;2023-07-29T11:46:06;3.85;;;1.80;;
24216;SDS011;12356;49.386;8.688;2023-07-29T11:48:37;2.40;;;1.90;;
24216;SDS011;12356;49.386;8.688;2023-07-29T11:51:08;2.97;;;1.92;;
24216;SDS011;12356;49.386;8.688;2023-07-29T11:53:41;2.22;;;1.88;;
24216;SDS011;12356;49.386;8.688;2023-07-29T11:56:12;2.40;;;1.80;;
24216;SDS011;12356;49.386;8.688;2023-07-29T11:58:43;1.88;;;1.65;;
24216;SDS011;12356;49.386;8.688;2023-07-29T12:01:13;1.83;;;1.63;;
24216;SDS011;12356;49.386;8.688;2023-07-29T12:03:44;2.83;;;1.60;;
24216;SDS011;12356;49.386;8.688;2023-07-29T12:06:15;2.78;;;1.83;;
24216;SDS011;12356;49.386;8.688;2023-07-29T12:08:46;2.83;;;1.73;;
24216;SDS011;12356;49.386;8.688;2023-07-29T12:11:17;3.55;;;1.80;;
24216;SDS011;12356;49.386;8.688;2023-07-29T12:13:48;2.70;;;1.88;;
24216;SDS011;12356;49.386;8.688;2023-07-29T12:16:18;4.82;;;1.65;;
24216;SDS011;12356;49.386;8.688;2023-07-29T12:18:50;2.60;;;1.60;;
24216;SDS011;12356;49.386;8.688;2023-07-29T12:21:20;5.38;;;1.80;;
24216;SDS011;12356;49.386;8.688;2023-07-29T12:23:51;2.30;;;1.50;;
24216;SDS011;12356;49.386;8.688;2023-07-29T12:26:23;3.28;;;1.65;;
24216;SDS011;12356;49.386;8.688;2023-07-29T12:28:58;5.47;;;2.08;;
24216;SDS011;12356;49.386;8.688;2023-07-29T12:31:31;2.47;;;1.80;;
24216;SDS011;12356;49.386;8.688;2023-07-29T12:34:02;2.00;;;1.70;;
24216;SDS011;12356;49.386;8.688;2023-07-29T12:36:49;3.42;;;1.80;;
24216;SDS011;12356;49.386;8.688;2023-07-29T12:39:21;3.25;;;1.77;;
24216;SDS011;12356;49.386;8.688;2023-07-29T12:41:55;1.90;;;1.50;;
24216;SDS011;12356;49.386;8.688;2023-07-29T12:44:30;6.95;;;1.90;;
24216;SDS011;12356;49.386;8.688;2023-07-29T12:47:03;1.80;;;1.67;;
24216;SDS011;12356;49.386;8.688;2023-07-29T12:49:35;2.13;;;1.60;;
24216;SDS011;12356;49.386;8.688;2023-07-29T12:52:06;1.83;;;1.60;;
24216;SDS011;12356;49.386;8.688;2023-07-29T12:54:36;1.70;;;1.60;;
24216;SDS011;12356;49.386;8.688;2023-07-29T12:57:07;1.95;;;1.50;;
24216;SDS011;12356;49.386;8.688;2023-07-29T12:59:37;1.63;;;1.50;;
24216;SDS011;12356;49.386;8.688;2023-07-29T13:02:08;2.00;;;1.60;;
24216;SDS011;12356;49.386;8.688;2023-07-29T13:04:38;1.80;;;1.70;;
24216;SDS011;12356;49.386;8.688;2023-07-29T13:07:09;2.67;;;1.60;;
24216;SDS011;12356;49.386;8.688;2023-07-29T13:09:39;1.70;;;1.60;;
24216;SDS011;12356;49.386;8.688;2023-07-29T13:12:10;1.70;;;1.60;;
24216;SDS011;12356;49.386;8.688;2023-07-29T13:14:40;3.88;;;1.58;;
24216;SDS011;12356;49.386;8.688;2023-07-29T13:17:11;2.28;;;1.60;;
24216;SDS011;12356;49.386;8.688;2023-07-29T13:19:41;3.08;;;1.90;;
24216;SDS011;12356;49.386;8.688;2023-07-29T13:22:12;1.92;;;1.48;;
24216;SDS011;12356;49.386;8.688;2023-07-29T13:24:43;1.70;;;1.55;;
24216;SDS011;12356;49.386;8.688;2023-07-29T13:27:13;2.70;;;1.67;;
24216;SDS011;12356;49.386;8.688;2023-07-29T13:29:44;3.60;;;1.63;;
24216;SDS011;12356;49.386;8.688;2023-07-29T13:32:14;1.58;;;1.48;;
24216;SDS011;12356;49.386;8.688;2023-07-29T13:34:45;2.38;;;1.50;;
24216;SDS011;12356;49.386;8.688;2023-07-29T13:37:15;3.03;;;1.65;;
24216;SDS011;12356;49.386;8.688;2023-07-29T13:39:46;1.92;;;1.70;;
24216;SDS011;12356;49.386;8.688;2023-07-29T13:42:16;1.92;;;1.50;;
24216;SDS011;12356;49.386;8.688;2023-07-29T13:44:47;1.55;;;1.45;;
24216;SDS011;12356;49.386;8.688;2023-07-29T13:47:17;2.50;;;1.70;;
24216;SDS011;12356;49.386;8.688;2023-07-29T13:49:48;2.95;;;1.67;;
24216;SDS011;12356;49.386;8.688;2023-07-29T13:52:18;2.88;;;1.50;;
24216;SDS011;12356;49.386;8.688;2023-07-29T13:54:49;1.67;;;1.52;;
24216;SDS011;12356;49.386;8.688;2023-07-29T13:57:19;2.00;;;1.65;;
24216;SDS011;12356;49.386;8.688;2023-07-29T13:59:50;2.10;;;1.50;;
24216;SDS011;12356;49.386;8.688;2023-07-29T14:02:20;1.60;;;1.50;;
24216;SDS011;12356;49.386;8.688;2023-07-29T14:04:51;2.22;;;1.60;;
24216;SDS011;12356;49.386;8.688;2023-07-29T14:07:22;2.35;;;1.73;;
24216;SDS011;12356;49.386;8.688;2023-07-29T14:09:53;1.70;;;1.60;;
24216;SDS011;12356;49.386;8.688;2023-07-29T14:12:23;1.65;;;1.52;;
24216;SDS011;12356;49.386;8.688;2023-07-29T14:14:54;1.40;;;1.30;;
24216;SDS011;12356;49.386;8.688;2023-07-29T14:17:24;1.60;;;1.50;;
24216;SDS011;12356;49.386;8.688;2023-07-29T14:19:55;1.92;;;1.55;;
24216;SDS011;12356;49.386;8.688;2023-07-29T14:22:25;1.80;;;1.70;;
24216;SDS011;12356;49.386;8.688;2023-07-29T14:24:56;1.70;;;1.60;;
24216;SDS011;12356;49.386;8.688;2023-07-29T14:27:27;3.22;;;1.83;;
24216;SDS011;12356;49.386;8.688;2023-07-29T14:29:57;2.08;;;1.88;;
24216;SDS011;12356;49.386;8.688;2023-07-29T14:32:28;1.58;;;1.40;;
24216;SDS011;12356;49.386;8.688;2023-07-29T14:34:58;2.72;;;1.73;;
24216;SDS011;12356;49.386;8.688;2023-07-29T14:37:33;5.00;;;1.65;;
24216;SDS011;12356;49.386;8.688;2023-07-29T14:40:04;1.90;;;1.60;;
24216;SDS011;12356;49.386;8.688;2023-07-29T14:42:36;3.58;;;1.63;;
24216;SDS011;12356;49.386;8.688;2023-07-29T14:45:06;1.75;;;1.58;;
24216;SDS011;12356;49.386;8.688;2023-07-29T14:47:37;3.53;;;1.77;;
24216;SDS011;12356;49.386;8.688;2023-07-29T14:50:07;4.45;;;1.60;;
24216;SDS011;12356;49.386;8.688;2023-07-29T14:52:38;1.60;;;1.50;;
24216;SDS011;12356;49.386;8.688;2023-07-29T14:55:08;1.73;;;1.55;;
24216;SDS011;12356;49.386;8.688;2023-07-29T14:57:39;2.40;;;1.63;;
24216;SDS011;12356;49.386;8.688;2023-07-29T15:00:11;1.60;;;1.50;;
24216;SDS011;12356;49.386;8.688;2023-07-29T15:02:42;1.70;;;1.60;;
24216;SDS011;12356;49.386;8.688;2023-07-29T15:05:13;1.83;;;1.63;;
24216;SDS011;12356;49.386;8.688;2023-07-29T15:07:44;2.13;;;1.70;;
24216;SDS011;12356;49.386;8.688;2023-07-29T15:10:15;2.08;;;1.85;;
24216;SDS011;12356;49.386;8.688;2023-07-29T15:12:46;4.18;;;1.70;;
24216;SDS011;12356;49.386;8.688;2023-07-29T15:15:17;1.70;;;1.60;;
24216;SDS011;12356;49.386;8.688;2023-07-29T15:17:47;1.83;;;1.73;;
24216;SDS011;12356;49.386;8.688;2023-07-29T15:20:18;3.15;;;1.67;;
24216;SDS011;12356;49.386;8.688;2023-07-29T15:22:49;2.63;;;1.60;;
24216;SDS011;12356;49.386;8.688;2023-07-29T15:25:19;1.67;;;1.52;;
24216;SDS011;12356;49.386;8.688;2023-07-29T15:27:50;3.28;;;1.60;;
24216;SDS011;12356;49.386;8.688;2023-07-29T15:30:21;1.83;;;1.60;;
24216;SDS011;12356;49.386;8.688;2023-07-29T15:32:51;3.58;;;1.70;;
24216;SDS011;12356;49.386;8.688;2023-07-29T15:35:22;1.88;;;1.58;;